sensor_id;sensor_type;location;lat;lon;timestamp;P1;durP1;ratioP1;P2;durP2;ratioP2
76894;SDS011;65855;42.030;13.078;2023-08-21T00:01:19;18.05;;;10.70;;
76894;SDS011;65855;42.030;13.078;2023-08-21T00:03:45;19.38;;;10.10;;
76894;SDS011;65855;42.030;13.078;2023-08-21T00:06:10;18.98;;;10.60;;
76894;SDS011;65855;42.030;13.078;2023-08-21T00:08:36;16.90;;;9.60;;
76894;SDS011;65855;42.030;13.078;2023-08-21T00:11:01;18.90;;;9.95;;
76894;SDS011;65855;42.030;13.078;2023-08-21T00:13:27;17.02;;;9.25;;
76894;SDS011;65855;42.030;13.078;2023-08-21T00:15:52;17.27;;;10.38;;
76894;SDS011;65855;42.030;13.078;2023-08-21T00:18:20;18.52;;;11.18;;
76894;SDS011;65855;42.030;13.078;2023-08-21T00:20:45;18.50;;;10.30;;
76894;SDS011;65855;42.030;13.078;2023-08-21T00:23:11;16.40;;;9.68;;
76894;SDS011;65855;42.030;13.078;2023-08-21T00:25:36;17.67;;;10.35;;
76894;SDS011;65855;42.030;13.078;2023-08-21T00:28:02;17.73;;;10.05;;
76894;SDS011;65855;42.030;13.078;2023-08-21T00:30:28;18.20;;;9.60;;
76894;SDS011;65855;42.030;13.078;2023-08-21T00:32:53;18.30;;;9.43;;
76894;SDS011;65855;42.030;13.078;2023-08-21T00:35:19;17.77;;;9.52;;
76894;SDS011;65855;42.030;13.078;2023-08-21T00:37:44;17.50;;;10.55;;
76894;SDS011;65855;42.030;13.078;2023-08-21T00:40:10;18.77;;;10.45;;
76894;SDS011;65855;42.030;13.078;2023-08-21T00:42:35;18.17;;;10.27;;
76894;SDS011;65855;42.030;13.078;2023-08-21T00:45:01;17.30;;;10.73;;
76894;SDS011;65855;42.030;13.078;2023-08-21T00:47:27;18.48;;;10.48;;
76894;SDS011;65855;42.030;13.078;2023-08-21T00:49:53;19.15;;;11.15;;
76894;SDS011;65855;42.030;13.078;2023-08-21T00:52:18;18.33;;;11.32;;
76894;SDS011;65855;42.030;13.078;2023-08-21T00:54:44;18.13;;;10.50;;
76894;SDS011;65855;42.030;13.078;2023-08-21T00:57:10;18.13;;;10.32;;
76894;SDS011;65855;42.030;13.078;2023-08-21T00:59:36;18.08;;;10.90;;
76894;SDS011;65855;42.030;13.078;2023-08-21T01:02:02;20.63;;;10.65;;
76894;SDS011;65855;42.030;13.078;2023-08-21T01:04:27;18.73;;;10.98;;
76894;SDS011;65855;42.030;13.078;2023-08-21T01:06:53;18.40;;;10.73;;
76894;SDS011;65855;42.030;13.078;2023-08-21T01:11:53;18.58;;;10.93;;
76894;SDS011;65855;42.030;13.078;2023-08-21T01:17:04;19.40;;;10.20;;
76894;SDS011;65855;42.030;13.078;2023-08-21T01:19:36;19.77;;;10.90;;
76894;SDS011;65855;42.030;13.078;2023-08-21T01:22:03;19.30;;;11.65;;
76894;SDS011;65855;42.030;13.078;2023-08-21T01:24:29;18.95;;;10.05;;
76894;SDS011;65855;42.030;13.078;2023-08-21T01:26:55;20.35;;;11.30;;
76894;SDS011;65855;42.030;13.078;2023-08-21T01:29:20;22.13;;;10.88;;
76894;SDS011;65855;42.030;13.078;2023-08-21T01:31:47;17.30;;;10.52;;
76894;SDS011;65855;42.030;13.078;2023-08-21T01:34:18;20.48;;;10.50;;
76894;SDS011;65855;42.030;13.078;2023-08-21T01:36:44;19.92;;;10.32;;
76894;SDS011;65855;42.030;13.078;2023-08-21T01:39:10;20.00;;;11.68;;
76894;SDS011;65855;42.030;13.078;2023-08-21T01:41:36;18.35;;;10.65;;
76894;SDS011;65855;42.030;13.078;2023-08-21T01:44:01;20.30;;;11.30;;
76894;SDS011;65855;42.030;13.078;2023-08-21T01:46:27;22.08;;;11.73;;
76894;SDS011;65855;42.030;13.078;2023-08-21T01:48:52;17.63;;;10.20;;
76894;SDS011;65855;42.030;13.078;2023-08-21T01:51:18;19.85;;;11.30;;
76894;SDS011;65855;42.030;13.078;2023-08-21T01:53:43;20.50;;;11.70;;
76894;SDS011;65855;42.030;13.078;2023-08-21T01:56:09;18.48;;;10.13;;
76894;SDS011;65855;42.030;13.078;2023-08-21T01:58:34;18.38;;;10.10;;
76894;SDS011;65855;42.030;13.078;2023-08-21T02:00:59;16.95;;;10.13;;
76894;SDS011;65855;42.030;13.078;2023-08-21T02:03:25;16.95;;;10.30;;
76894;SDS011;65855;42.030;13.078;2023-08-21T02:05:54;20.75;;;10.65;;
76894;SDS011;65855;42.030;13.078;2023-08-21T02:08:22;19.38;;;10.70;;
76894;SDS011;65855;42.030;13.078;2023-08-21T02:10:50;18.58;;;11.10;;
76894;SDS011;65855;42.030;13.078;2023-08-21T02:13:16;20.23;;;11.80;;
76894;SDS011;65855;42.030;13.078;2023-08-21T02:15:41;18.65;;;10.68;;
76894;SDS011;65855;42.030;13.078;2023-08-21T02:18:06;19.80;;;10.55;;
76894;SDS011;65855;42.030;13.078;2023-08-21T02:20:32;20.00;;;10.60;;
76894;SDS011;65855;42.030;13.078;2023-08-21T02:22:57;20.48;;;11.50;;
76894;SDS011;65855;42.030;13.078;2023-08-21T02:25:23;19.23;;;12.13;;
76894;SDS011;65855;42.030;13.078;2023-08-21T02:27:48;18.27;;;10.68;;
76894;SDS011;65855;42.030;13.078;2023-08-21T02:30:14;19.45;;;10.68;;
76894;SDS011;65855;42.030;13.078;2023-08-21T02:32:39;19.17;;;10.77;;
76894;SDS011;65855;42.030;13.078;2023-08-21T02:35:05;21.30;;;11.65;;
76894;SDS011;65855;42.030;13.078;2023-08-21T02:37:32;19.40;;;10.75;;
76894;SDS011;65855;42.030;13.078;2023-08-21T02:39:57;19.15;;;11.25;;
76894;SDS011;65855;42.030;13.078;2023-08-21T02:42:24;20.13;;;11.00;;
76894;SDS011;65855;42.030;13.078;2023-08-21T02:44:49;19.75;;;10.48;;
76894;SDS011;65855;42.030;13.078;2023-08-21T02:47:15;22.92;;;11.43;;
76894;SDS011;65855;42.030;13.078;2023-08-21T02:49:40;18.98;;;10.70;;
76894;SDS011;65855;42.030;13.078;2023-08-21T02:52:06;18.42;;;10.30;;
76894;SDS011;65855;42.030;13.078;2023-08-21T02:54:31;19.60;;;10.13;;
76894;SDS011;65855;42.030;13.078;2023-08-21T02:56:56;19.75;;;11.45;;
76894;SDS011;65855;42.030;13.078;2023-08-21T02:59:22;21.45;;;10.50;;
76894;SDS011;65855;42.030;13.078;2023-08-21T03:01:47;17.98;;;10.38;;
76894;SDS011;65855;42.030;13.078;2023-08-21T03:04:13;20.05;;;10.48;;
76894;SDS011;65855;42.030;13.078;2023-08-21T03:06:38;21.05;;;11.93;;
76894;SDS011;65855;42.030;13.078;2023-08-21T03:09:03;18.48;;;11.07;;
76894;SDS011;65855;42.030;13.078;2023-08-21T03:11:29;18.17;;;10.73;;
76894;SDS011;65855;42.030;13.078;2023-08-21T03:13:54;21.40;;;11.30;;
76894;SDS011;65855;42.030;13.078;2023-08-21T03:16:20;20.83;;;11.80;;
76894;SDS011;65855;42.030;13.078;2023-08-21T03:18:56;18.77;;;10.38;;
76894;SDS011;65855;42.030;13.078;2023-08-21T03:23:55;22.25;;;11.73;;
76894;SDS011;65855;42.030;13.078;2023-08-21T03:26:22;21.52;;;10.27;;
76894;SDS011;65855;42.030;13.078;2023-08-21T03:28:48;20.27;;;10.43;;
76894;SDS011;65855;42.030;13.078;2023-08-21T03:31:14;16.65;;;9.77;;
76894;SDS011;65855;42.030;13.078;2023-08-21T03:33:40;18.05;;;9.95;;
76894;SDS011;65855;42.030;13.078;2023-08-21T03:36:05;18.30;;;9.70;;
76894;SDS011;65855;42.030;13.078;2023-08-21T03:38:31;18.65;;;9.82;;
76894;SDS011;65855;42.030;13.078;2023-08-21T03:40:56;19.00;;;10.52;;
76894;SDS011;65855;42.030;13.078;2023-08-21T03:43:22;20.95;;;12.05;;
76894;SDS011;65855;42.030;13.078;2023-08-21T03:45:47;19.17;;;10.68;;
76894;SDS011;65855;42.030;13.078;2023-08-21T03:48:12;20.45;;;10.77;;
76894;SDS011;65855;42.030;13.078;2023-08-21T03:50:38;20.98;;;11.27;;
76894;SDS011;65855;42.030;13.078;2023-08-21T03:53:04;20.27;;;12.07;;
76894;SDS011;65855;42.030;13.078;2023-08-21T03:55:29;22.73;;;11.38;;
76894;SDS011;65855;42.030;13.078;2023-08-21T03:57:55;19.65;;;11.18;;
76894;SDS011;65855;42.030;13.078;2023-08-21T04:00:20;20.67;;;10.85;;
76894;SDS011;65855;42.030;13.078;2023-08-21T04:02:45;19.17;;;10.35;;
76894;SDS011;65855;42.030;13.078;2023-08-21T04:05:11;18.98;;;11.05;;
76894;SDS011;65855;42.030;13.078;2023-08-21T04:07:37;20.30;;;10.10;;
76894;SDS011;65855;42.030;13.078;2023-08-21T04:10:02;19.55;;;11.35;;
76894;SDS011;65855;42.030;13.078;2023-08-21T04:12:28;18.85;;;10.85;;
76894;SDS011;65855;42.030;13.078;2023-08-21T04:14:53;18.95;;;11.02;;
76894;SDS011;65855;42.030;13.078;2023-08-21T04:17:22;20.55;;;11.40;;
76894;SDS011;65855;42.030;13.078;2023-08-21T04:19:49;18.48;;;10.48;;
76894;SDS011;65855;42.030;13.078;2023-08-21T04:22:14;17.77;;;10.43;;
76894;SDS011;65855;42.030;13.078;2023-08-21T04:24:40;20.05;;;10.65;;
76894;SDS011;65855;42.030;13.078;2023-08-21T04:27:07;19.23;;;11.15;;
76894;SDS011;65855;42.030;13.078;2023-08-21T04:29:33;21.08;;;11.57;;
76894;SDS011;65855;42.030;13.078;2023-08-21T04:32:00;19.33;;;10.15;;
76894;SDS011;65855;42.030;13.078;2023-08-21T04:34:25;20.27;;;11.57;;
76894;SDS011;65855;42.030;13.078;2023-08-21T04:36:50;18.52;;;10.32;;
76894;SDS011;65855;42.030;13.078;2023-08-21T04:39:17;20.13;;;12.20;;
76894;SDS011;65855;42.030;13.078;2023-08-21T04:41:42;20.35;;;9.95;;
76894;SDS011;65855;42.030;13.078;2023-08-21T04:44:08;20.27;;;10.98;;
76894;SDS011;65855;42.030;13.078;2023-08-21T04:46:33;21.20;;;11.57;;
76894;SDS011;65855;42.030;13.078;2023-08-21T04:48:59;18.63;;;10.10;;
76894;SDS011;65855;42.030;13.078;2023-08-21T04:51:24;20.00;;;11.38;;
76894;SDS011;65855;42.030;13.078;2023-08-21T04:53:50;19.88;;;11.00;;
76894;SDS011;65855;42.030;13.078;2023-08-21T04:56:15;19.58;;;11.77;;
76894;SDS011;65855;42.030;13.078;2023-08-21T04:58:40;18.92;;;10.35;;
76894;SDS011;65855;42.030;13.078;2023-08-21T05:01:06;21.00;;;12.13;;
76894;SDS011;65855;42.030;13.078;2023-08-21T05:03:31;20.33;;;11.82;;
76894;SDS011;65855;42.030;13.078;2023-08-21T05:05:56;19.60;;;10.15;;
76894;SDS011;65855;42.030;13.078;2023-08-21T05:08:23;21.42;;;11.32;;
76894;SDS011;65855;42.030;13.078;2023-08-21T05:10:59;19.17;;;11.20;;
76894;SDS011;65855;42.030;13.078;2023-08-21T05:13:25;19.70;;;11.30;;
76894;SDS011;65855;42.030;13.078;2023-08-21T05:15:54;22.55;;;12.38;;
76894;SDS011;65855;42.030;13.078;2023-08-21T05:18:21;18.88;;;10.85;;
76894;SDS011;65855;42.030;13.078;2023-08-21T05:20:47;20.70;;;11.45;;
76894;SDS011;65855;42.030;13.078;2023-08-21T05:23:13;21.02;;;12.13;;
76894;SDS011;65855;42.030;13.078;2023-08-21T05:25:39;20.65;;;10.63;;
76894;SDS011;65855;42.030;13.078;2023-08-21T05:28:05;20.25;;;11.02;;
76894;SDS011;65855;42.030;13.078;2023-08-21T05:30:31;19.85;;;10.55;;
76894;SDS011;65855;42.030;13.078;2023-08-21T05:32:56;18.30;;;10.02;;
76894;SDS011;65855;42.030;13.078;2023-08-21T05:35:22;18.15;;;11.68;;
76894;SDS011;65855;42.030;13.078;2023-08-21T05:37:47;19.38;;;11.32;;
76894;SDS011;65855;42.030;13.078;2023-08-21T05:40:13;16.73;;;10.07;;
76894;SDS011;65855;42.030;13.078;2023-08-21T05:42:38;17.27;;;10.55;;
76894;SDS011;65855;42.030;13.078;2023-08-21T05:45:04;19.25;;;11.10;;
76894;SDS011;65855;42.030;13.078;2023-08-21T05:47:30;17.95;;;10.63;;
76894;SDS011;65855;42.030;13.078;2023-08-21T05:49:56;14.90;;;9.68;;
76894;SDS011;65855;42.030;13.078;2023-08-21T05:52:22;18.42;;;10.88;;
76894;SDS011;65855;42.030;13.078;2023-08-21T05:54:47;17.02;;;10.25;;
76894;SDS011;65855;42.030;13.078;2023-08-21T05:57:13;17.33;;;9.60;;
76894;SDS011;65855;42.030;13.078;2023-08-21T05:59:43;16.23;;;8.98;;
76894;SDS011;65855;42.030;13.078;2023-08-21T06:02:12;16.85;;;9.23;;
76894;SDS011;65855;42.030;13.078;2023-08-21T06:04:42;16.60;;;9.25;;
76894;SDS011;65855;42.030;13.078;2023-08-21T06:07:08;14.93;;;8.27;;
76894;SDS011;65855;42.030;13.078;2023-08-21T06:09:34;14.48;;;8.45;;
76894;SDS011;65855;42.030;13.078;2023-08-21T06:12:00;14.90;;;8.95;;
76894;SDS011;65855;42.030;13.078;2023-08-21T06:14:26;14.02;;;8.77;;
76894;SDS011;65855;42.030;13.078;2023-08-21T06:17:02;15.20;;;9.00;;
76894;SDS011;65855;42.030;13.078;2023-08-21T06:19:28;16.05;;;8.85;;
76894;SDS011;65855;42.030;13.078;2023-08-21T06:21:55;15.23;;;8.13;;
76894;SDS011;65855;42.030;13.078;2023-08-21T06:24:21;16.23;;;8.80;;
76894;SDS011;65855;42.030;13.078;2023-08-21T06:26:47;15.40;;;8.77;;
76894;SDS011;65855;42.030;13.078;2023-08-21T06:29:12;13.50;;;8.55;;
76894;SDS011;65855;42.030;13.078;2023-08-21T06:31:38;14.80;;;8.65;;
76894;SDS011;65855;42.030;13.078;2023-08-21T06:34:03;13.20;;;8.48;;
76894;SDS011;65855;42.030;13.078;2023-08-21T06:36:29;13.57;;;8.48;;
76894;SDS011;65855;42.030;13.078;2023-08-21T06:38:55;13.63;;;8.73;;
76894;SDS011;65855;42.030;13.078;2023-08-21T06:41:20;13.52;;;7.82;;
76894;SDS011;65855;42.030;13.078;2023-08-21T06:43:46;18.65;;;8.52;;
76894;SDS011;65855;42.030;13.078;2023-08-21T06:46:11;13.43;;;8.20;;
76894;SDS011;65855;42.030;13.078;2023-08-21T06:48:38;13.30;;;8.30;;
76894;SDS011;65855;42.030;13.078;2023-08-21T06:51:05;12.60;;;8.10;;
76894;SDS011;65855;42.030;13.078;2023-08-21T06:53:31;14.80;;;8.70;;
76894;SDS011;65855;42.030;13.078;2023-08-21T06:55:56;13.30;;;8.13;;
76894;SDS011;65855;42.030;13.078;2023-08-21T06:58:22;12.90;;;8.65;;
76894;SDS011;65855;42.030;13.078;2023-08-21T07:00:47;13.57;;;8.57;;
76894;SDS011;65855;42.030;13.078;2023-08-21T07:03:13;14.80;;;9.13;;
76894;SDS011;65855;42.030;13.078;2023-08-21T07:05:38;13.98;;;7.85;;
76894;SDS011;65855;42.030;13.078;2023-08-21T07:08:04;12.80;;;8.18;;
76894;SDS011;65855;42.030;13.078;2023-08-21T07:10:30;17.05;;;9.60;;
76894;SDS011;65855;42.030;13.078;2023-08-21T07:13:00;12.82;;;8.30;;
76894;SDS011;65855;42.030;13.078;2023-08-21T07:15:25;12.35;;;8.40;;
76894;SDS011;65855;42.030;13.078;2023-08-21T07:17:51;13.40;;;8.50;;
76894;SDS011;65855;42.030;13.078;2023-08-21T07:20:16;13.70;;;7.68;;
76894;SDS011;65855;42.030;13.078;2023-08-21T07:22:42;14.45;;;8.55;;
76894;SDS011;65855;42.030;13.078;2023-08-21T07:25:07;14.70;;;8.18;;
76894;SDS011;65855;42.030;13.078;2023-08-21T07:27:33;13.40;;;8.25;;
76894;SDS011;65855;42.030;13.078;2023-08-21T07:29:58;15.07;;;8.65;;
76894;SDS011;65855;42.030;13.078;2023-08-21T07:32:24;12.55;;;8.20;;
76894;SDS011;65855;42.030;13.078;2023-08-21T07:34:53;13.52;;;8.40;;
76894;SDS011;65855;42.030;13.078;2023-08-21T07:37:19;13.85;;;8.52;;
76894;SDS011;65855;42.030;13.078;2023-08-21T07:39:45;12.57;;;8.77;;
76894;SDS011;65855;42.030;13.078;2023-08-21T07:42:11;12.65;;;8.10;;
76894;SDS011;65855;42.030;13.078;2023-08-21T07:44:38;16.45;;;9.02;;
76894;SDS011;65855;42.030;13.078;2023-08-21T07:47:04;12.48;;;8.23;;
76894;SDS011;65855;42.030;13.078;2023-08-21T07:49:30;12.70;;;9.48;;
76894;SDS011;65855;42.030;13.078;2023-08-21T07:51:56;12.25;;;8.30;;
76894;SDS011;65855;42.030;13.078;2023-08-21T07:54:21;13.27;;;8.68;;
76894;SDS011;65855;42.030;13.078;2023-08-21T07:56:47;12.30;;;8.68;;
76894;SDS011;65855;42.030;13.078;2023-08-21T07:59:12;12.50;;;9.13;;
76894;SDS011;65855;42.030;13.078;2023-08-21T08:01:38;12.02;;;7.95;;
76894;SDS011;65855;42.030;13.078;2023-08-21T08:04:04;15.38;;;8.68;;
76894;SDS011;65855;42.030;13.078;2023-08-21T08:06:29;11.52;;;8.25;;
76894;SDS011;65855;42.030;13.078;2023-08-21T08:08:55;15.88;;;9.05;;
76894;SDS011;65855;42.030;13.078;2023-08-21T08:11:20;11.43;;;8.57;;
76894;SDS011;65855;42.030;13.078;2023-08-21T08:13:46;13.07;;;8.85;;
76894;SDS011;65855;42.030;13.078;2023-08-21T08:16:11;13.73;;;8.82;;
76894;SDS011;65855;42.030;13.078;2023-08-21T08:18:37;13.23;;;9.52;;
76894;SDS011;65855;42.030;13.078;2023-08-21T08:21:02;12.70;;;8.45;;
76894;SDS011;65855;42.030;13.078;2023-08-21T08:23:27;12.43;;;8.68;;
76894;SDS011;65855;42.030;13.078;2023-08-21T08:25:53;12.88;;;8.98;;
76894;SDS011;65855;42.030;13.078;2023-08-21T08:28:18;12.45;;;9.30;;
76894;SDS011;65855;42.030;13.078;2023-08-21T08:30:44;13.35;;;9.73;;
76894;SDS011;65855;42.030;13.078;2023-08-21T08:33:10;15.13;;;8.98;;
76894;SDS011;65855;42.030;13.078;2023-08-21T08:35:35;12.50;;;8.93;;
76894;SDS011;65855;42.030;13.078;2023-08-21T08:38:01;14.32;;;9.38;;
76894;SDS011;65855;42.030;13.078;2023-08-21T08:40:27;14.30;;;9.02;;
76894;SDS011;65855;42.030;13.078;2023-08-21T08:42:52;13.52;;;9.45;;
76894;SDS011;65855;42.030;13.078;2023-08-21T08:45:20;11.52;;;8.27;;
76894;SDS011;65855;42.030;13.078;2023-08-21T08:47:59;12.63;;;8.75;;
76894;SDS011;65855;42.030;13.078;2023-08-21T08:50:26;12.85;;;9.88;;
76894;SDS011;65855;42.030;13.078;2023-08-21T08:52:54;13.23;;;8.88;;
76894;SDS011;65855;42.030;13.078;2023-08-21T08:55:21;12.25;;;8.65;;
76894;SDS011;65855;42.030;13.078;2023-08-21T08:57:47;11.95;;;8.05;;
76894;SDS011;65855;42.030;13.078;2023-08-21T09:00:12;14.25;;;8.75;;
76894;SDS011;65855;42.030;13.078;2023-08-21T09:02:38;12.18;;;8.10;;
76894;SDS011;65855;42.030;13.078;2023-08-21T09:05:04;12.20;;;8.40;;
76894;SDS011;65855;42.030;13.078;2023-08-21T09:07:30;11.48;;;8.50;;
76894;SDS011;65855;42.030;13.078;2023-08-21T09:09:55;11.13;;;7.75;;
76894;SDS011;65855;42.030;13.078;2023-08-21T09:12:20;12.38;;;7.68;;
76894;SDS011;65855;42.030;13.078;2023-08-21T09:14:46;10.65;;;7.35;;
76894;SDS011;65855;42.030;13.078;2023-08-21T09:17:12;11.10;;;7.03;;
76894;SDS011;65855;42.030;13.078;2023-08-21T09:19:38;12.00;;;7.97;;
76894;SDS011;65855;42.030;13.078;2023-08-21T09:22:08;10.93;;;7.78;;
76894;SDS011;65855;42.030;13.078;2023-08-21T09:24:35;11.07;;;6.93;;
76894;SDS011;65855;42.030;13.078;2023-08-21T09:27:01;9.90;;;6.72;;
76894;SDS011;65855;42.030;13.078;2023-08-21T09:29:27;13.25;;;7.45;;
76894;SDS011;65855;42.030;13.078;2023-08-21T09:32:02;9.90;;;6.05;;
76894;SDS011;65855;42.030;13.078;2023-08-21T09:34:33;12.43;;;6.57;;
76894;SDS011;65855;42.030;13.078;2023-08-21T09:36:59;10.75;;;7.18;;
76894;SDS011;65855;42.030;13.078;2023-08-21T09:39:25;11.15;;;7.50;;
76894;SDS011;65855;42.030;13.078;2023-08-21T09:41:58;10.10;;;7.03;;
76894;SDS011;65855;42.030;13.078;2023-08-21T09:44:24;11.57;;;7.35;;
76894;SDS011;65855;42.030;13.078;2023-08-21T09:46:50;11.02;;;6.68;;
76894;SDS011;65855;42.030;13.078;2023-08-21T09:49:15;11.45;;;7.35;;
76894;SDS011;65855;42.030;13.078;2023-08-21T09:51:42;12.98;;;7.25;;
76894;SDS011;65855;42.030;13.078;2023-08-21T09:54:10;9.90;;;6.45;;
76894;SDS011;65855;42.030;13.078;2023-08-21T09:56:36;10.50;;;6.28;;
76894;SDS011;65855;42.030;13.078;2023-08-21T09:59:02;11.60;;;6.85;;
76894;SDS011;65855;42.030;13.078;2023-08-21T10:01:28;10.82;;;7.22;;
76894;SDS011;65855;42.030;13.078;2023-08-21T10:03:59;10.15;;;7.13;;
76894;SDS011;65855;42.030;13.078;2023-08-21T10:06:28;10.13;;;6.00;;
76894;SDS011;65855;42.030;13.078;2023-08-21T10:08:55;11.95;;;6.90;;
76894;SDS011;65855;42.030;13.078;2023-08-21T10:11:21;10.25;;;6.68;;
76894;SDS011;65855;42.030;13.078;2023-08-21T10:13:47;10.90;;;7.20;;
76894;SDS011;65855;42.030;13.078;2023-08-21T10:16:16;11.27;;;7.32;;
76894;SDS011;65855;42.030;13.078;2023-08-21T10:18:43;10.57;;;7.30;;
76894;SDS011;65855;42.030;13.078;2023-08-21T10:21:14;12.55;;;7.53;;
76894;SDS011;65855;42.030;13.078;2023-08-21T10:23:50;13.02;;;7.35;;
76894;SDS011;65855;42.030;13.078;2023-08-21T10:26:19;9.85;;;6.85;;
76894;SDS011;65855;42.030;13.078;2023-08-21T10:28:56;13.00;;;6.97;;
76894;SDS011;65855;42.030;13.078;2023-08-21T10:31:25;10.35;;;6.28;;
76894;SDS011;65855;42.030;13.078;2023-08-21T10:33:54;11.50;;;7.65;;
76894;SDS011;65855;42.030;13.078;2023-08-21T10:39:04;10.80;;;6.82;;
76894;SDS011;65855;42.030;13.078;2023-08-21T10:41:40;10.25;;;7.28;;
76894;SDS011;65855;42.030;13.078;2023-08-21T10:44:06;10.35;;;6.85;;
76894;SDS011;65855;42.030;13.078;2023-08-21T10:46:52;9.43;;;6.35;;
76894;SDS011;65855;42.030;13.078;2023-08-21T10:49:18;10.55;;;6.78;;
76894;SDS011;65855;42.030;13.078;2023-08-21T10:51:43;10.13;;;8.02;;
76894;SDS011;65855;42.030;13.078;2023-08-21T10:54:15;10.73;;;7.53;;
76894;SDS011;65855;42.030;13.078;2023-08-21T10:56:41;10.13;;;6.68;;
76894;SDS011;65855;42.030;13.078;2023-08-21T10:59:07;10.05;;;7.38;;
76894;SDS011;65855;42.030;13.078;2023-08-21T11:01:44;10.35;;;6.60;;
76894;SDS011;65855;42.030;13.078;2023-08-21T11:04:13;11.00;;;6.80;;
76894;SDS011;65855;42.030;13.078;2023-08-21T11:06:39;9.80;;;6.28;;
76894;SDS011;65855;42.030;13.078;2023-08-21T11:09:05;9.52;;;6.65;;
76894;SDS011;65855;42.030;13.078;2023-08-21T11:11:37;10.93;;;7.82;;
76894;SDS011;65855;42.030;13.078;2023-08-21T11:14:04;10.57;;;6.28;;
76894;SDS011;65855;42.030;13.078;2023-08-21T11:16:29;9.90;;;6.15;;
76894;SDS011;65855;42.030;13.078;2023-08-21T11:18:54;14.20;;;7.68;;
76894;SDS011;65855;42.030;13.078;2023-08-21T11:21:20;9.32;;;6.05;;
76894;SDS011;65855;42.030;13.078;2023-08-21T11:23:48;9.88;;;6.47;;
76894;SDS011;65855;42.030;13.078;2023-08-21T11:26:13;10.18;;;6.28;;
76894;SDS011;65855;42.030;13.078;2023-08-21T11:28:39;9.70;;;6.60;;
76894;SDS011;65855;42.030;13.078;2023-08-21T11:31:05;10.68;;;6.68;;
76894;SDS011;65855;42.030;13.078;2023-08-21T11:33:31;9.40;;;6.45;;
76894;SDS011;65855;42.030;13.078;2023-08-21T11:35:56;12.00;;;7.18;;
76894;SDS011;65855;42.030;13.078;2023-08-21T11:38:24;11.05;;;5.97;;
76894;SDS011;65855;42.030;13.078;2023-08-21T11:40:58;8.88;;;5.70;;
76894;SDS011;65855;42.030;13.078;2023-08-21T11:46:03;9.57;;;6.28;;
76894;SDS011;65855;42.030;13.078;2023-08-21T11:48:30;9.40;;;6.25;;
76894;SDS011;65855;42.030;13.078;2023-08-21T11:50:55;8.88;;;6.00;;
76894;SDS011;65855;42.030;13.078;2023-08-21T11:53:31;10.55;;;6.63;;
76894;SDS011;65855;42.030;13.078;2023-08-21T11:55:57;10.45;;;5.95;;
76894;SDS011;65855;42.030;13.078;2023-08-21T11:58:22;9.80;;;6.43;;
76894;SDS011;65855;42.030;13.078;2023-08-21T12:00:47;10.45;;;6.05;;
76894;SDS011;65855;42.030;13.078;2023-08-21T12:03:17;10.48;;;6.40;;
76894;SDS011;65855;42.030;13.078;2023-08-21T12:05:43;9.80;;;6.40;;
76894;SDS011;65855;42.030;13.078;2023-08-21T12:08:09;9.07;;;6.55;;
76894;SDS011;65855;42.030;13.078;2023-08-21T12:10:34;11.73;;;6.35;;
76894;SDS011;65855;42.030;13.078;2023-08-21T12:13:00;8.50;;;6.38;;
76894;SDS011;65855;42.030;13.078;2023-08-21T12:15:25;9.82;;;6.82;;
76894;SDS011;65855;42.030;13.078;2023-08-21T12:17:51;8.57;;;5.45;;
76894;SDS011;65855;42.030;13.078;2023-08-21T12:20:17;10.35;;;6.20;;
76894;SDS011;65855;42.030;13.078;2023-08-21T12:22:42;11.00;;;6.55;;
76894;SDS011;65855;42.030;13.078;2023-08-21T12:25:08;9.15;;;5.93;;
76894;SDS011;65855;42.030;13.078;2023-08-21T12:27:35;8.80;;;6.20;;
76894;SDS011;65855;42.030;13.078;2023-08-21T12:30:00;9.18;;;6.32;;
76894;SDS011;65855;42.030;13.078;2023-08-21T12:32:26;9.40;;;6.13;;
76894;SDS011;65855;42.030;13.078;2023-08-21T12:34:51;8.85;;;6.47;;
76894;SDS011;65855;42.030;13.078;2023-08-21T12:37:17;9.93;;;5.68;;
76894;SDS011;65855;42.030;13.078;2023-08-21T12:39:42;7.93;;;5.82;;
76894;SDS011;65855;42.030;13.078;2023-08-21T12:42:08;9.82;;;6.32;;
76894;SDS011;65855;42.030;13.078;2023-08-21T12:44:34;9.13;;;6.43;;
76894;SDS011;65855;42.030;13.078;2023-08-21T12:46:59;10.20;;;6.00;;
76894;SDS011;65855;42.030;13.078;2023-08-21T12:49:25;9.27;;;6.32;;
76894;SDS011;65855;42.030;13.078;2023-08-21T12:51:50;8.68;;;5.90;;
76894;SDS011;65855;42.030;13.078;2023-08-21T12:54:16;9.60;;;5.88;;
76894;SDS011;65855;42.030;13.078;2023-08-21T12:56:41;9.75;;;5.93;;
76894;SDS011;65855;42.030;13.078;2023-08-21T12:59:07;9.30;;;6.10;;
76894;SDS011;65855;42.030;13.078;2023-08-21T13:01:32;8.68;;;6.18;;
76894;SDS011;65855;42.030;13.078;2023-08-21T13:03:59;10.07;;;6.32;;
76894;SDS011;65855;42.030;13.078;2023-08-21T13:06:25;9.00;;;6.90;;
76894;SDS011;65855;42.030;13.078;2023-08-21T13:08:51;10.73;;;6.28;;
76894;SDS011;65855;42.030;13.078;2023-08-21T13:11:17;9.10;;;5.78;;
76894;SDS011;65855;42.030;13.078;2023-08-21T13:13:42;9.75;;;5.55;;
76894;SDS011;65855;42.030;13.078;2023-08-21T13:16:08;9.38;;;6.28;;
76894;SDS011;65855;42.030;13.078;2023-08-21T13:18:33;9.98;;;6.68;;
76894;SDS011;65855;42.030;13.078;2023-08-21T13:20:58;10.77;;;7.50;;
76894;SDS011;65855;42.030;13.078;2023-08-21T13:23:24;9.73;;;7.35;;
76894;SDS011;65855;42.030;13.078;2023-08-21T13:25:49;11.27;;;7.38;;
76894;SDS011;65855;42.030;13.078;2023-08-21T13:28:15;11.25;;;7.78;;
76894;SDS011;65855;42.030;13.078;2023-08-21T13:30:40;12.23;;;7.47;;
76894;SDS011;65855;42.030;13.078;2023-08-21T13:33:06;9.80;;;7.47;;
76894;SDS011;65855;42.030;13.078;2023-08-21T13:35:32;11.07;;;7.55;;
76894;SDS011;65855;42.030;13.078;2023-08-21T13:37:58;11.88;;;8.10;;
76894;SDS011;65855;42.030;13.078;2023-08-21T13:40:23;11.82;;;7.97;;
76894;SDS011;65855;42.030;13.078;2023-08-21T13:42:49;11.23;;;8.23;;
76894;SDS011;65855;42.030;13.078;2023-08-21T13:45:16;12.30;;;8.32;;
76894;SDS011;65855;42.030;13.078;2023-08-21T13:47:43;10.30;;;7.68;;
76894;SDS011;65855;42.030;13.078;2023-08-21T13:50:13;10.93;;;7.85;;
76894;SDS011;65855;42.030;13.078;2023-08-21T13:52:40;11.85;;;8.07;;
76894;SDS011;65855;42.030;13.078;2023-08-21T13:55:06;10.40;;;7.78;;
76894;SDS011;65855;42.030;13.078;2023-08-21T13:57:32;11.35;;;8.38;;
76894;SDS011;65855;42.030;13.078;2023-08-21T13:59:58;10.93;;;7.88;;
76894;SDS011;65855;42.030;13.078;2023-08-21T14:02:25;11.95;;;7.95;;
76894;SDS011;65855;42.030;13.078;2023-08-21T14:04:50;11.55;;;7.82;;
76894;SDS011;65855;42.030;13.078;2023-08-21T14:07:16;10.82;;;7.32;;
76894;SDS011;65855;42.030;13.078;2023-08-21T14:09:41;10.95;;;8.35;;
76894;SDS011;65855;42.030;13.078;2023-08-21T14:12:07;10.18;;;7.85;;
76894;SDS011;65855;42.030;13.078;2023-08-21T14:14:33;10.50;;;7.72;;
76894;SDS011;65855;42.030;13.078;2023-08-21T14:16:59;10.38;;;7.32;;
76894;SDS011;65855;42.030;13.078;2023-08-21T14:19:25;11.57;;;8.10;;
76894;SDS011;65855;42.030;13.078;2023-08-21T14:21:50;11.18;;;8.40;;
76894;SDS011;65855;42.030;13.078;2023-08-21T14:24:16;11.15;;;7.80;;
76894;SDS011;65855;42.030;13.078;2023-08-21T14:26:41;11.73;;;8.63;;